Turtle Lake, North Dakota
Current Conditions -  °F | °C
As of 5:15 PM on Wednesday 26 Nov 2014 (Local Time) from KHZE Reporting Station
Few Clouds Few Clouds  
Wind Chill:   Ceiling: Unl
Heat Index:   Visibility: 10mi
Dew Point: -4°   Wind: 3mph
Humidity: 85%   Direction: 70°ENE
Pressure: 30.43"   Gusts: NA
Location:  47.52°N, 100.89°W
Report Text: KHZE 262315Z AUTO 07003KT 10SM FEW007 M18/M20 A3043 RMK AO2
Loading
Personal Weather Stations






























Interactive Weather Map New forecast layout! Learn more

10-Day Weather Forecast

Advertisements
Track Severe Weather on mobile